sensor_id;sensor_type;location;lat;lon;timestamp;pressure;altitude;pressure_sealevel;temperature;humidity
70730;BME280;58315;53.336;55.932;2022-12-18T00:01:41;101138.38;;;1.97;55.55
70730;BME280;58315;53.336;55.932;2022-12-18T00:04:16;101140.88;;;2.00;55.48
70730;BME280;58315;53.336;55.932;2022-12-18T00:06:44;101146.50;;;1.86;55.15
70730;BME280;58315;53.336;55.932;2022-12-18T00:09:10;101143.72;;;1.92;55.30
70730;BME280;58315;53.336;55.932;2022-12-18T00:11:36;101158.88;;;1.79;55.19
70730;BME280;58315;53.336;55.932;2022-12-18T00:14:02;101157.78;;;1.86;55.36
70730;BME280;58315;53.336;55.932;2022-12-18T00:16:29;101162.13;;;1.87;54.96
70730;BME280;58315;53.336;55.932;2022-12-18T00:18:57;101166.41;;;1.88;55.17
70730;BME280;58315;53.336;55.932;2022-12-18T00:21:25;101155.28;;;1.83;54.96
70730;BME280;58315;53.336;55.932;2022-12-18T00:23:52;101152.84;;;1.77;55.42
70730;BME280;58315;53.336;55.932;2022-12-18T00:26:28;101143.13;;;1.82;55.23
70730;BME280;58315;53.336;55.932;2022-12-18T00:29:05;101140.44;;;1.85;55.06
70730;BME280;58315;53.336;55.932;2022-12-18T00:31:32;101127.59;;;1.79;54.84
70730;BME280;58315;53.336;55.932;2022-12-18T00:34:00;101133.69;;;1.78;54.21
70730;BME280;58315;53.336;55.932;2022-12-18T00:36:32;101130.75;;;1.90;54.20
70730;BME280;58315;53.336;55.932;2022-12-18T00:39:02;101138.59;;;1.89;54.21
70730;BME280;58315;53.336;55.932;2022-12-18T00:41:29;101139.66;;;1.83;53.76
70730;BME280;58315;53.336;55.932;2022-12-18T00:44:15;101151.09;;;1.78;53.34
70730;BME280;58315;53.336;55.932;2022-12-18T00:46:42;101152.31;;;1.66;53.10
70730;BME280;58315;53.336;55.932;2022-12-18T00:49:09;101146.19;;;1.67;52.75
70730;BME280;58315;53.336;55.932;2022-12-18T00:51:35;101157.28;;;1.74;52.39
70730;BME280;58315;53.336;55.932;2022-12-18T00:54:01;101154.78;;;1.71;51.77
70730;BME280;58315;53.336;55.932;2022-12-18T00:56:27;101155.53;;;1.74;51.80
70730;BME280;58315;53.336;55.932;2022-12-18T00:58:53;101139.09;;;1.72;51.55
70730;BME280;58315;53.336;55.932;2022-12-18T01:01:19;101139.66;;;1.82;50.99
70730;BME280;58315;53.336;55.932;2022-12-18T01:03:45;101139.53;;;1.86;50.84
70730;BME280;58315;53.336;55.932;2022-12-18T01:06:14;101137.81;;;1.85;50.91
70730;BME280;58315;53.336;55.932;2022-12-18T01:08:41;101144.19;;;1.77;50.42
70730;BME280;58315;53.336;55.932;2022-12-18T01:11:09;101144.41;;;1.69;50.57
70730;BME280;58315;53.336;55.932;2022-12-18T01:13:35;101147.03;;;1.67;50.42
70730;BME280;58315;53.336;55.932;2022-12-18T01:16:01;101153.75;;;1.76;50.72
70730;BME280;58315;53.336;55.932;2022-12-18T01:18:27;101150.31;;;1.74;50.70
70730;BME280;58315;53.336;55.932;2022-12-18T01:20:53;101139.88;;;1.76;50.30
70730;BME280;58315;53.336;55.932;2022-12-18T01:23:19;101149.63;;;1.69;50.06
70730;BME280;58315;53.336;55.932;2022-12-18T01:25:45;101149.47;;;1.74;50.07
70730;BME280;58315;53.336;55.932;2022-12-18T01:28:11;101155.53;;;1.74;49.67
70730;BME280;58315;53.336;55.932;2022-12-18T01:30:37;101151.22;;;1.73;49.60
70730;BME280;58315;53.336;55.932;2022-12-18T01:33:05;101146.56;;;1.84;49.50
70730;BME280;58315;53.336;55.932;2022-12-18T01:35:32;101141.59;;;1.75;49.25
70730;BME280;58315;53.336;55.932;2022-12-18T01:37:58;101152.03;;;1.75;49.16
70730;BME280;58315;53.336;55.932;2022-12-18T01:40:23;101151.31;;;1.70;49.20
70730;BME280;58315;53.336;55.932;2022-12-18T01:42:52;101146.19;;;1.67;49.31
70730;BME280;58315;53.336;55.932;2022-12-18T01:47:50;101145.38;;;1.65;49.09
70730;BME280;58315;53.336;55.932;2022-12-18T01:52:59;101142.09;;;1.58;49.54
70730;BME280;58315;53.336;55.932;2022-12-18T01:55:29;101140.66;;;1.48;49.79
70730;BME280;58315;53.336;55.932;2022-12-18T01:57:58;101148.19;;;1.26;49.92
70730;BME280;58315;53.336;55.932;2022-12-18T02:00:25;101155.94;;;1.29;50.06
70730;BME280;58315;53.336;55.932;2022-12-18T02:02:52;101149.16;;;1.22;50.34
70730;BME280;58315;53.336;55.932;2022-12-18T02:05:26;101154.16;;;1.30;50.64
70730;BME280;58315;53.336;55.932;2022-12-18T02:11:13;101143.38;;;1.43;50.50
70730;BME280;58315;53.336;55.932;2022-12-18T02:16:58;101130.88;;;1.25;50.49
70730;BME280;58315;53.336;55.932;2022-12-18T02:24:45;101098.22;;;1.12;49.87
70730;BME280;58315;53.336;55.932;2022-12-18T02:27:18;101102.81;;;1.04;50.02
70730;BME280;58315;53.336;55.932;2022-12-18T02:29:51;101097.66;;;1.01;50.22
70730;BME280;58315;53.336;55.932;2022-12-18T02:32:26;101098.28;;;1.10;50.17
70730;BME280;58315;53.336;55.932;2022-12-18T02:34:55;101093.00;;;1.13;50.13
70730;BME280;58315;53.336;55.932;2022-12-18T02:37:25;101090.28;;;1.18;50.54
70730;BME280;58315;53.336;55.932;2022-12-18T02:39:55;101093.75;;;1.17;50.79
70730;BME280;58315;53.336;55.932;2022-12-18T02:42:22;101087.59;;;1.21;51.04
70730;BME280;58315;53.336;55.932;2022-12-18T02:44:51;101080.53;;;1.25;50.71
70730;BME280;58315;53.336;55.932;2022-12-18T02:47:23;101088.94;;;1.34;50.33
70730;BME280;58315;53.336;55.932;2022-12-18T02:50:18;101086.03;;;1.45;50.56
70730;BME280;58315;53.336;55.932;2022-12-18T02:55:52;101081.13;;;1.34;50.35
70730;BME280;58315;53.336;55.932;2022-12-18T03:01:24;101077.50;;;1.40;50.15
70730;BME280;58315;53.336;55.932;2022-12-18T03:04:16;101074.44;;;1.55;49.92
70730;BME280;58315;53.336;55.932;2022-12-18T03:06:47;101071.16;;;1.49;49.67
70730;BME280;58315;53.336;55.932;2022-12-18T03:09:28;101072.19;;;1.43;49.09
70730;BME280;58315;53.336;55.932;2022-12-18T03:12:02;101083.19;;;1.53;49.28
70730;BME280;58315;53.336;55.932;2022-12-18T03:17:31;101086.84;;;1.47;49.74
70730;BME280;58315;53.336;55.932;2022-12-18T03:20:03;101090.91;;;1.56;49.85
70730;BME280;58315;53.336;55.932;2022-12-18T03:22:33;101094.22;;;1.61;49.76
70730;BME280;58315;53.336;55.932;2022-12-18T03:25:04;101090.66;;;1.65;49.63
70730;BME280;58315;53.336;55.932;2022-12-18T03:27:33;101088.94;;;1.64;49.59
70730;BME280;58315;53.336;55.932;2022-12-18T03:30:08;101078.59;;;1.61;49.79
70730;BME280;58315;53.336;55.932;2022-12-18T03:32:44;101077.63;;;1.65;49.74
70730;BME280;58315;53.336;55.932;2022-12-18T03:35:18;101069.91;;;1.62;49.99
70730;BME280;58315;53.336;55.932;2022-12-18T03:37:47;101074.31;;;1.60;49.72
70730;BME280;58315;53.336;55.932;2022-12-18T03:40:13;101054.63;;;1.50;50.13
70730;BME280;58315;53.336;55.932;2022-12-18T03:42:48;101062.13;;;1.60;49.98
70730;BME280;58315;53.336;55.932;2022-12-18T03:45:26;101066.22;;;1.69;49.71
70730;BME280;58315;53.336;55.932;2022-12-18T03:48:16;101063.13;;;1.56;50.04
70730;BME280;58315;53.336;55.932;2022-12-18T03:51:00;101065.78;;;1.55;50.16
70730;BME280;58315;53.336;55.932;2022-12-18T03:53:50;101072.09;;;1.46;50.57
70730;BME280;58315;53.336;55.932;2022-12-18T03:56:16;101084.03;;;1.53;50.44
70730;BME280;58315;53.336;55.932;2022-12-18T03:58:44;101093.50;;;1.57;50.34
70730;BME280;58315;53.336;55.932;2022-12-18T04:01:25;101094.06;;;1.67;50.27
70730;BME280;58315;53.336;55.932;2022-12-18T04:03:53;101080.94;;;1.70;50.06
70730;BME280;58315;53.336;55.932;2022-12-18T04:06:20;101080.88;;;1.72;49.63
70730;BME280;58315;53.336;55.932;2022-12-18T04:08:47;101069.53;;;1.74;49.61
70730;BME280;58315;53.336;55.932;2022-12-18T04:11:16;101064.16;;;1.80;49.95
70730;BME280;58315;53.336;55.932;2022-12-18T04:13:44;101067.84;;;1.73;49.64
70730;BME280;58315;53.336;55.932;2022-12-18T04:16:19;101065.22;;;1.73;49.69
70730;BME280;58315;53.336;55.932;2022-12-18T04:18:48;101062.66;;;1.72;49.40
70730;BME280;58315;53.336;55.932;2022-12-18T04:21:14;101072.38;;;1.66;49.29
70730;BME280;58315;53.336;55.932;2022-12-18T04:23:41;101062.09;;;1.62;49.54
70730;BME280;58315;53.336;55.932;2022-12-18T04:26:07;101062.97;;;1.61;49.87
70730;BME280;58315;53.336;55.932;2022-12-18T04:28:53;101066.56;;;1.57;48.97
70730;BME280;58315;53.336;55.932;2022-12-18T04:31:20;101058.13;;;1.49;49.62
70730;BME280;58315;53.336;55.932;2022-12-18T04:33:47;101054.59;;;1.51;49.52
70730;BME280;58315;53.336;55.932;2022-12-18T04:36:13;101062.25;;;1.56;49.91
70730;BME280;58315;53.336;55.932;2022-12-18T04:38:40;101065.69;;;1.58;49.90
70730;BME280;58315;53.336;55.932;2022-12-18T04:41:13;101062.78;;;1.67;49.61
70730;BME280;58315;53.336;55.932;2022-12-18T04:43:40;101058.75;;;1.57;49.72
70730;BME280;58315;53.336;55.932;2022-12-18T04:46:08;101055.88;;;1.66;49.32
70730;BME280;58315;53.336;55.932;2022-12-18T04:48:34;101054.97;;;1.67;49.62
70730;BME280;58315;53.336;55.932;2022-12-18T04:51:02;101052.97;;;1.47;49.13
70730;BME280;58315;53.336;55.932;2022-12-18T04:53:28;101059.06;;;1.46;49.48
70730;BME280;58315;53.336;55.932;2022-12-18T04:56:11;101071.66;;;1.61;49.22
70730;BME280;58315;53.336;55.932;2022-12-18T04:58:39;101068.31;;;1.56;49.48
70730;BME280;58315;53.336;55.932;2022-12-18T05:01:05;101059.97;;;1.45;49.27
70730;BME280;58315;53.336;55.932;2022-12-18T05:03:31;101064.41;;;1.41;49.43
70730;BME280;58315;53.336;55.932;2022-12-18T05:05:57;101059.28;;;1.38;49.21
70730;BME280;58315;53.336;55.932;2022-12-18T05:08:23;101063.72;;;1.36;49.35
70730;BME280;58315;53.336;55.932;2022-12-18T05:10:49;101068.69;;;1.44;49.28
70730;BME280;58315;53.336;55.932;2022-12-18T05:13:15;101059.97;;;1.45;49.01
70730;BME280;58315;53.336;55.932;2022-12-18T05:15:41;101055.69;;;1.42;49.40
70730;BME280;58315;53.336;55.932;2022-12-18T05:18:08;101063.50;;;1.42;48.89
70730;BME280;58315;53.336;55.932;2022-12-18T05:20:34;101060.75;;;1.49;49.13
70730;BME280;58315;53.336;55.932;2022-12-18T05:23:00;101045.94;;;1.49;48.98
70730;BME280;58315;53.336;55.932;2022-12-18T05:25:26;101041.59;;;1.50;48.92
70730;BME280;58315;53.336;55.932;2022-12-18T05:27:52;101046.00;;;1.48;48.89
70730;BME280;58315;53.336;55.932;2022-12-18T05:30:18;101038.28;;;1.44;49.06
70730;BME280;58315;53.336;55.932;2022-12-18T05:32:44;101037.69;;;1.35;48.63
70730;BME280;58315;53.336;55.932;2022-12-18T05:35:10;101054.22;;;1.34;49.08
70730;BME280;58315;53.336;55.932;2022-12-18T05:37:36;101057.44;;;1.42;48.86
70730;BME280;58315;53.336;55.932;2022-12-18T05:40:04;101053.09;;;1.42;49.61
70730;BME280;58315;53.336;55.932;2022-12-18T05:42:30;101055.59;;;1.47;49.24
70730;BME280;58315;53.336;55.932;2022-12-18T05:44:56;101035.53;;;1.49;49.10
70730;BME280;58315;53.336;55.932;2022-12-18T05:47:22;101045.03;;;1.52;49.19
70730;BME280;58315;53.336;55.932;2022-12-18T05:49:48;101041.56;;;1.51;49.37
70730;BME280;58315;53.336;55.932;2022-12-18T05:52:14;101030.81;;;1.62;49.40
70730;BME280;58315;53.336;55.932;2022-12-18T05:54:40;101027.16;;;1.67;49.09
70730;BME280;58315;53.336;55.932;2022-12-18T05:57:06;101039.41;;;1.65;49.12
70730;BME280;58315;53.336;55.932;2022-12-18T05:59:32;101034.22;;;1.64;49.36
70730;BME280;58315;53.336;55.932;2022-12-18T06:01:58;101037.66;;;1.66;49.58
70730;BME280;58315;53.336;55.932;2022-12-18T06:04:24;101032.38;;;1.67;49.45
70730;BME280;58315;53.336;55.932;2022-12-18T06:06:52;101038.81;;;1.56;49.32
70730;BME280;58315;53.336;55.932;2022-12-18T06:09:18;101027.59;;;1.54;49.95
70730;BME280;58315;53.336;55.932;2022-12-18T06:11:44;101035.44;;;1.52;50.38
70730;BME280;58315;53.336;55.932;2022-12-18T06:14:10;101019.81;;;1.52;50.13
70730;BME280;58315;53.336;55.932;2022-12-18T06:16:36;101029.66;;;1.42;50.11
70730;BME280;58315;53.336;55.932;2022-12-18T06:19:04;101032.84;;;1.52;50.16
70730;BME280;58315;53.336;55.932;2022-12-18T06:21:31;101026.63;;;1.56;50.14
70730;BME280;58315;53.336;55.932;2022-12-18T06:23:57;101032.59;;;1.60;50.31
70730;BME280;58315;53.336;55.932;2022-12-18T06:26:23;101020.31;;;1.65;49.98
70730;BME280;58315;53.336;55.932;2022-12-18T06:28:49;101030.75;;;1.65;49.71
70730;BME280;58315;53.336;55.932;2022-12-18T06:31:15;101029.47;;;1.49;49.83
70730;BME280;58315;53.336;55.932;2022-12-18T06:33:41;101027.63;;;1.52;49.79
70730;BME280;58315;53.336;55.932;2022-12-18T06:36:10;101029.09;;;1.61;50.17
70730;BME280;58315;53.336;55.932;2022-12-18T06:38:40;101013.59;;;1.58;49.89
70730;BME280;58315;53.336;55.932;2022-12-18T06:41:11;101010.50;;;1.73;49.76
70730;BME280;58315;53.336;55.932;2022-12-18T06:43:37;101019.34;;;1.67;49.75
70730;BME280;58315;53.336;55.932;2022-12-18T06:46:04;101013.28;;;1.67;49.81
70730;BME280;58315;53.336;55.932;2022-12-18T06:48:30;101010.75;;;1.65;49.62
70730;BME280;58315;53.336;55.932;2022-12-18T06:50:57;101015.88;;;1.67;49.80
70730;BME280;58315;53.336;55.932;2022-12-18T06:53:23;101008.69;;;1.75;49.69
70730;BME280;58315;53.336;55.932;2022-12-18T06:55:49;101011.34;;;1.74;49.93
70730;BME280;58315;53.336;55.932;2022-12-18T06:58:15;101010.25;;;1.81;50.45
70730;BME280;58315;53.336;55.932;2022-12-18T07:00:41;101006.75;;;1.82;50.03
70730;BME280;58315;53.336;55.932;2022-12-18T07:03:07;100996.72;;;1.69;50.59
70730;BME280;58315;53.336;55.932;2022-12-18T07:05:33;100992.28;;;1.72;50.57
70730;BME280;58315;53.336;55.932;2022-12-18T07:07:59;100985.63;;;1.63;51.07
70730;BME280;58315;53.336;55.932;2022-12-18T07:10:26;100991.50;;;1.69;50.91
70730;BME280;58315;53.336;55.932;2022-12-18T07:12:51;100990.44;;;1.75;51.00
70730;BME280;58315;53.336;55.932;2022-12-18T07:15:17;100997.47;;;1.73;51.04
70730;BME280;58315;53.336;55.932;2022-12-18T07:17:46;100986.19;;;1.73;51.07
70730;BME280;58315;53.336;55.932;2022-12-18T07:20:12;100990.56;;;1.72;51.14
70730;BME280;58315;53.336;55.932;2022-12-18T07:22:38;100988.84;;;1.71;50.99
70730;BME280;58315;53.336;55.932;2022-12-18T07:25:04;100987.13;;;1.70;51.19
70730;BME280;58315;53.336;55.932;2022-12-18T07:27:30;100983.84;;;1.65;50.71
70730;BME280;58315;53.336;55.932;2022-12-18T07:29:56;100972.50;;;1.66;51.20
70730;BME280;58315;53.336;55.932;2022-12-18T07:32:23;100975.09;;;1.66;51.09
70730;BME280;58315;53.336;55.932;2022-12-18T07:34:48;100967.31;;;1.64;50.79
70730;BME280;58315;53.336;55.932;2022-12-18T07:37:14;100959.63;;;1.61;50.13
70730;BME280;58315;53.336;55.932;2022-12-18T07:39:40;100967.03;;;1.74;50.08
70730;BME280;58315;53.336;55.932;2022-12-18T07:42:09;100961.75;;;1.77;50.38
70730;BME280;58315;53.336;55.932;2022-12-18T07:44:53;100972.50;;;1.66;50.15
70730;BME280;58315;53.336;55.932;2022-12-18T07:47:19;100957.78;;;1.65;49.79
70730;BME280;58315;53.336;55.932;2022-12-18T07:49:45;100953.00;;;1.78;50.20
70730;BME280;58315;53.336;55.932;2022-12-18T07:52:11;100951.22;;;1.80;50.08
70730;BME280;58315;53.336;55.932;2022-12-18T07:54:38;100949.75;;;1.71;50.34
70730;BME280;58315;53.336;55.932;2022-12-18T07:57:04;100946.03;;;1.78;50.16
70730;BME280;58315;53.336;55.932;2022-12-18T07:59:30;100939.38;;;1.96;49.87
70730;BME280;58315;53.336;55.932;2022-12-18T08:01:56;100939.72;;;1.85;49.79
70730;BME280;58315;53.336;55.932;2022-12-18T08:04:22;100937.72;;;1.93;49.53
70730;BME280;58315;53.336;55.932;2022-12-18T08:06:48;100928.53;;;1.83;49.52
70730;BME280;58315;53.336;55.932;2022-12-18T08:09:14;100915.31;;;1.88;49.23
70730;BME280;58315;53.336;55.932;2022-12-18T08:11:40;100920.56;;;1.86;49.44
70730;BME280;58315;53.336;55.932;2022-12-18T08:14:05;100925.03;;;1.83;49.59
70730;BME280;58315;53.336;55.932;2022-12-18T08:16:31;100913.75;;;1.82;49.83
70730;BME280;58315;53.336;55.932;2022-12-18T08:19:00;100913.66;;;1.85;49.28
70730;BME280;58315;53.336;55.932;2022-12-18T08:21:28;100917.81;;;1.64;49.90
70730;BME280;58315;53.336;55.932;2022-12-18T08:23:57;100912.25;;;1.75;49.74
70730;BME280;58315;53.336;55.932;2022-12-18T08:26:24;100913.88;;;1.79;50.31
70730;BME280;58315;53.336;55.932;2022-12-18T08:28:53;100913.56;;;1.88;49.87
70730;BME280;58315;53.336;55.932;2022-12-18T08:31:19;100912.91;;;1.82;49.92
70730;BME280;58315;53.336;55.932;2022-12-18T08:33:48;100906.44;;;1.93;49.75
70730;BME280;58315;53.336;55.932;2022-12-18T08:36:16;100907.31;;;1.94;49.61
70730;BME280;58315;53.336;55.932;2022-12-18T08:38:42;100897.53;;;1.74;49.92
70730;BME280;58315;53.336;55.932;2022-12-18T08:41:10;100894.94;;;1.74;49.82
70730;BME280;58315;53.336;55.932;2022-12-18T08:43:36;100879.00;;;1.83;49.87
70730;BME280;58315;53.336;55.932;2022-12-18T08:46:22;100869.75;;;2.00;49.71
70730;BME280;58315;53.336;55.932;2022-12-18T08:48:51;100866.47;;;1.93;49.28
70730;BME280;58315;53.336;55.932;2022-12-18T08:51:17;100864.72;;;1.93;50.00
70730;BME280;58315;53.336;55.932;2022-12-18T08:53:43;100865.47;;;1.97;49.60
70730;BME280;58315;53.336;55.932;2022-12-18T08:56:10;100860.50;;;1.91;49.45
70730;BME280;58315;53.336;55.932;2022-12-18T08:58:36;100860.22;;;1.99;49.38
70730;BME280;58315;53.336;55.932;2022-12-18T09:01:04;100853.34;;;1.96;49.40
70730;BME280;58315;53.336;55.932;2022-12-18T09:03:30;100838.66;;;1.93;48.97
70730;BME280;58315;53.336;55.932;2022-12-18T09:05:56;100840.69;;;1.85;49.36
70730;BME280;58315;53.336;55.932;2022-12-18T09:08:22;100853.63;;;1.88;49.49
70730;BME280;58315;53.336;55.932;2022-12-18T09:10:49;100849.97;;;1.94;49.75
70730;BME280;58315;53.336;55.932;2022-12-18T09:13:16;100842.63;;;2.05;49.27
70730;BME280;58315;53.336;55.932;2022-12-18T09:15:47;100848.56;;;2.09;49.46
70730;BME280;58315;53.336;55.932;2022-12-18T09:18:15;100841.06;;;2.25;49.44
70730;BME280;58315;53.336;55.932;2022-12-18T09:20:41;100833.22;;;2.25;49.17
70730;BME280;58315;53.336;55.932;2022-12-18T09:23:07;100826.91;;;2.30;48.99
70730;BME280;58315;53.336;55.932;2022-12-18T09:25:33;100804.34;;;2.29;49.06
70730;BME280;58315;53.336;55.932;2022-12-18T09:28:30;100799.16;;;2.29;48.81
70730;BME280;58315;53.336;55.932;2022-12-18T09:30:56;100801.41;;;2.15;49.32
70730;BME280;58315;53.336;55.932;2022-12-18T09:33:22;100797.66;;;2.22;49.34
70730;BME280;58315;53.336;55.932;2022-12-18T09:35:48;100800.84;;;2.30;49.32
70730;BME280;58315;53.336;55.932;2022-12-18T09:38:17;100794.00;;;2.28;49.48
70730;BME280;58315;53.336;55.932;2022-12-18T09:40:52;100792.13;;;2.31;49.31
70730;BME280;58315;53.336;55.932;2022-12-18T09:43:23;100792.75;;;2.38;49.37
70730;BME280;58315;53.336;55.932;2022-12-18T09:45:55;100789.06;;;2.44;49.23
70730;BME280;58315;53.336;55.932;2022-12-18T09:48:29;100779.81;;;2.35;49.36
70730;BME280;58315;53.336;55.932;2022-12-18T09:51:04;100779.84;;;2.33;49.35
70730;BME280;58315;53.336;55.932;2022-12-18T09:53:35;100785.06;;;2.33;49.18
70730;BME280;58315;53.336;55.932;2022-12-18T09:56:03;100777.94;;;2.38;49.22
70730;BME280;58315;53.336;55.932;2022-12-18T09:58:43;100781.13;;;2.23;49.45
70730;BME280;58315;53.336;55.932;2022-12-18T10:01:15;100788.16;;;2.21;49.55
70730;BME280;58315;53.336;55.932;2022-12-18T10:03:44;100760.22;;;2.01;49.45
70730;BME280;58315;53.336;55.932;2022-12-18T10:06:21;100765.34;;;2.03;49.77
70730;BME280;58315;53.336;55.932;2022-12-18T10:15:04;100744.72;;;1.97;50.19
70730;BME280;58315;53.336;55.932;2022-12-18T10:20:31;100746.53;;;1.95;50.67
70730;BME280;58315;53.336;55.932;2022-12-18T10:28:17;100721.50;;;1.90;50.15
70730;BME280;58315;53.336;55.932;2022-12-18T10:30:45;100744.41;;;1.81;50.29
70730;BME280;58315;53.336;55.932;2022-12-18T10:33:16;100720.84;;;1.84;50.40
70730;BME280;58315;53.336;55.932;2022-12-18T10:35:43;100719.75;;;1.89;50.69
70730;BME280;58315;53.336;55.932;2022-12-18T10:41:06;100721.25;;;1.97;50.71
70730;BME280;58315;53.336;55.932;2022-12-18T10:43:38;100719.63;;;1.94;50.99
70730;BME280;58315;53.336;55.932;2022-12-18T10:51:07;100710.94;;;1.93;51.01
70730;BME280;58315;53.336;55.932;2022-12-18T10:53:36;100707.16;;;2.02;51.01
70730;BME280;58315;53.336;55.932;2022-12-18T10:56:04;100706.53;;;1.96;51.30
70730;BME280;58315;53.336;55.932;2022-12-18T10:58:33;100722.25;;;1.92;51.62
70730;BME280;58315;53.336;55.932;2022-12-18T11:01:16;100722.25;;;1.92;51.80
70730;BME280;58315;53.336;55.932;2022-12-18T11:03:45;100726.56;;;1.93;51.86
70730;BME280;58315;53.336;55.932;2022-12-18T11:06:15;100714.22;;;1.99;51.62
70730;BME280;58315;53.336;55.932;2022-12-18T11:08:43;100716.84;;;1.99;51.35
70730;BME280;58315;53.336;55.932;2022-12-18T11:11:21;100713.09;;;2.06;51.68
70730;BME280;58315;53.336;55.932;2022-12-18T11:14:01;100704.13;;;1.89;51.37
70730;BME280;58315;53.336;55.932;2022-12-18T11:16:30;100694.63;;;1.88;51.77
70730;BME280;58315;53.336;55.932;2022-12-18T11:19:38;100695.34;;;1.92;51.68
70730;BME280;58315;53.336;55.932;2022-12-18T11:22:24;100691.78;;;1.95;51.54
70730;BME280;58315;53.336;55.932;2022-12-18T11:27:39;100692.81;;;1.90;51.79
70730;BME280;58315;53.336;55.932;2022-12-18T11:30:24;100700.94;;;2.05;51.75
70730;BME280;58315;53.336;55.932;2022-12-18T11:32:55;100690.06;;;1.93;51.85
70730;BME280;58315;53.336;55.932;2022-12-18T11:35:45;100686.91;;;2.09;51.85
70730;BME280;58315;53.336;55.932;2022-12-18T11:38:26;100681.56;;;2.12;51.99
70730;BME280;58315;53.336;55.932;2022-12-18T11:44:00;100691.44;;;2.27;52.37
70730;BME280;58315;53.336;55.932;2022-12-18T11:46:34;100698.94;;;2.13;52.37
70730;BME280;58315;53.336;55.932;2022-12-18T11:49:34;100686.44;;;2.21;52.45
70730;BME280;58315;53.336;55.932;2022-12-18T11:52:19;100691.53;;;2.24;52.32
70730;BME280;58315;53.336;55.932;2022-12-18T11:54:52;100690.31;;;2.11;52.21
70730;BME280;58315;53.336;55.932;2022-12-18T11:57:35;100686.66;;;2.15;52.03
70730;BME280;58315;53.336;55.932;2022-12-18T12:00:16;100691.66;;;2.21;52.37
70730;BME280;58315;53.336;55.932;2022-12-18T12:03:24;100679.53;;;2.20;52.14
70730;BME280;58315;53.336;55.932;2022-12-18T12:11:54;100679.28;;;2.26;51.73
70730;BME280;58315;53.336;55.932;2022-12-18T12:20:20;100649.69;;;2.05;51.83
70730;BME280;58315;53.336;55.932;2022-12-18T12:22:59;100637.13;;;2.15;51.51
70730;BME280;58315;53.336;55.932;2022-12-18T12:25:34;100637.81;;;2.20;51.73
70730;BME280;58315;53.336;55.932;2022-12-18T12:36:25;100651.25;;;2.09;52.31
70730;BME280;58315;53.336;55.932;2022-12-18T12:38:58;100656.06;;;1.97;52.23
70730;BME280;58315;53.336;55.932;2022-12-18T12:41:30;100656.91;;;1.97;52.39
70730;BME280;58315;53.336;55.932;2022-12-18T12:44:25;100660.34;;;1.99;52.04
70730;BME280;58315;53.336;55.932;2022-12-18T12:46:57;100656.81;;;2.00;52.05
70730;BME280;58315;53.336;55.932;2022-12-18T12:49:27;100659.50;;;1.99;51.86
70730;BME280;58315;53.336;55.932;2022-12-18T12:52:06;100639.81;;;2.13;51.92
70730;BME280;58315;53.336;55.932;2022-12-18T12:54:34;100643.47;;;2.08;51.90
70730;BME280;58315;53.336;55.932;2022-12-18T12:57:20;100641.88;;;2.27;51.60
70730;BME280;58315;53.336;55.932;2022-12-18T13:00:04;100633.38;;;2.22;51.63
70730;BME280;58315;53.336;55.932;2022-12-18T13:05:06;100640.22;;;2.25;51.30
70730;BME280;58315;53.336;55.932;2022-12-18T13:07:56;100624.78;;;2.20;51.32
70730;BME280;58315;53.336;55.932;2022-12-18T13:10:36;100630.16;;;2.15;51.48
70730;BME280;58315;53.336;55.932;2022-12-18T13:13:11;100623.00;;;2.21;51.36
70730;BME280;58315;53.336;55.932;2022-12-18T13:15:46;100617.97;;;2.16;51.39
70730;BME280;58315;53.336;55.932;2022-12-18T13:18:21;100612.88;;;2.13;51.21
70730;BME280;58315;53.336;55.932;2022-12-18T13:21:03;100623.19;;;2.16;51.64
70730;BME280;58315;53.336;55.932;2022-12-18T13:23:36;100623.59;;;2.05;51.87
70730;BME280;58315;53.336;55.932;2022-12-18T13:31:15;100592.78;;;2.15;51.86
70730;BME280;58315;53.336;55.932;2022-12-18T13:34:20;100589.66;;;2.29;51.69
70730;BME280;58315;53.336;55.932;2022-12-18T13:36:47;100569.31;;;2.15;51.79
70730;BME280;58315;53.336;55.932;2022-12-18T13:41:43;100568.25;;;1.99;52.14
70730;BME280;58315;53.336;55.932;2022-12-18T13:46:47;100564.69;;;2.01;52.16
70730;BME280;58315;53.336;55.932;2022-12-18T13:49:38;100562.97;;;2.00;52.80
70730;BME280;58315;53.336;55.932;2022-12-18T13:52:22;100569.94;;;2.00;52.73
70730;BME280;58315;53.336;55.932;2022-12-18T13:54:55;100561.94;;;2.04;52.82
70730;BME280;58315;53.336;55.932;2022-12-18T13:57:31;100563.03;;;1.99;53.02
70730;BME280;58315;53.336;55.932;2022-12-18T13:59:57;100538.72;;;1.98;53.34
70730;BME280;58315;53.336;55.932;2022-12-18T14:02:28;100538.22;;;2.10;53.55
70730;BME280;58315;53.336;55.932;2022-12-18T14:04:54;100536.03;;;2.00;53.78
70730;BME280;58315;53.336;55.932;2022-12-18T14:07:22;100538.00;;;2.16;53.60
70730;BME280;58315;53.336;55.932;2022-12-18T14:09:52;100541.56;;;2.14;53.20
70730;BME280;58315;53.336;55.932;2022-12-18T14:12:25;100545.97;;;2.12;53.74
70730;BME280;58315;53.336;55.932;2022-12-18T14:15:43;100540.41;;;2.21;53.74
70730;BME280;58315;53.336;55.932;2022-12-18T14:18:20;100532.59;;;2.21;53.73
70730;BME280;58315;53.336;55.932;2022-12-18T14:20:51;100526.72;;;2.16;53.93
70730;BME280;58315;53.336;55.932;2022-12-18T14:26:02;100519.31;;;2.27;53.61
70730;BME280;58315;53.336;55.932;2022-12-18T14:28:28;100525.16;;;2.32;53.61
70730;BME280;58315;53.336;55.932;2022-12-18T14:30:54;100525.69;;;2.40;53.67
70730;BME280;58315;53.336;55.932;2022-12-18T14:33:24;100511.03;;;2.38;53.30
70730;BME280;58315;53.336;55.932;2022-12-18T14:36:01;100505.34;;;2.28;53.93
70730;BME280;58315;53.336;55.932;2022-12-18T14:38:34;100499.72;;;2.37;53.72